CMA CGM Homere — MQBL6 — position and weather

sailwx.info

Track history (hours):
 
Tides and Currents Weather Stations Pressure Air Temp Water Temp Dewpoint Dewpoint Depression Visibility Wind Speed Wind Dir Waves Ship Positions

CMA CGM Homere

Last reported at 2016-Aug-27 09:19 UTC. Time now 2016-Aug-27 09:57 UTC.
Position N 42°33' W 009°48'.

Length 170 m; draft 8.1 m.

Type: Ship (hazmat cat A). MMSI: 235052314.

Date/timePositionNaut miles runAvg speedWind from/ knotsBaromVisibWave heightAir tempDewpointWater temp
2016-Aug-27 09:19N 42°33' W 009°48'2915.0
2016-Aug-27 07:25N 42°05' W 009°49'1414.8
2016-Aug-27 06:29N 41°51' W 009°49'7414.8
2016-Aug-27 01:29N 40°37' W 009°51'1914.6
2016-Aug-27 00:12N 40°18' W 009°51'914.8
2016-Aug-26 23:33N 40°09' W 009°51'5914.8
2016-Aug-26 19:33N 39°10' W 009°53'1515.2
2016-Aug-26 18:33N 38°54' W 009°52'1514.9
2016-Aug-26 17:33N 38°39' W 009°51'1514.8
2016-Aug-26 16:33N 38°25' W 009°46'1414.3
2016-Aug-26 15:33N 38°11' W 009°42'1414.0
2016-Aug-26 14:33N 37°57' W 009°39'1413.9
2016-Aug-26 13:33N 37°44' W 009°35'1414.4
2016-Aug-26 12:33N 37°30' W 009°31'18216.0
2016-Aug-26 01:10N 35°58' W 006°14'1217.9
2016-Aug-26 00:29N 35°58' W 005°59'1617.0
2016-Aug-25 23:33N 35°57' W 005°40'5 0.7
2016-Aug-25 16:04N 35°53' W 005°36'5 8.0
2016-Aug-25 15:24N 35°56' W 005°31'8 9.4
2016-Aug-25 14:34N 36°00' W 005°22'23016.0
2016-Aug-25 00:13N 37°33' W 001°00'8 0.8
2016-Aug-24 14:10N 37°31' W 000°50'1216.6
2016-Aug-24 13:26N 37°34' W 000°35'1817.1
2016-Aug-24 12:23N 37°48' W 000°22'1416.9
2016-Aug-24 11:32N 37°59' W 000°11'8812.6
2016-Aug-24 04:33N 39°27' W 000°19'0 0.0
2016-Aug-24 03:31N 39°27' W 000°19'0 0.0
2016-Aug-24 02:31N 39°27' W 000°19'0 0.0
2016-Aug-24 01:31N 39°27' W 000°19'0 0.0
2016-Aug-24 00:31N 39°27' W 000°19'0 0.0
2016-Aug-23 23:31N 39°27' W 000°19'0 0.0
2016-Aug-23 22:31N 39°27' W 000°19'0 0.0
2016-Aug-23 21:31N 39°27' W 000°19'0 0.0
2016-Aug-23 20:31N 39°27' W 000°19'0 0.0
2016-Aug-23 19:31N 39°27' W 000°19'0 0.0
2016-Aug-23 18:31N 39°27' W 000°19'0 0.0
2016-Aug-23 17:31N 39°27' W 000°19'0 0.0
2016-Aug-23 16:31N 39°27' W 000°19'0 0.0
2016-Aug-23 15:31N 39°27' W 000°19'0 0.0
2016-Aug-23 14:28N 39°27' W 000°19'0 0.0
2016-Aug-23 13:31N 39°27' W 000°19'0 0.0
2016-Aug-23 12:31N 39°27' W 000°19'0 0.0
2016-Aug-23 11:31N 39°27' W 000°19'0 0.0
2016-Aug-23 10:28N 39°27' W 000°19'3 3.0
2016-Aug-23 09:24N 39°24' W 000°17'0 0.1
2016-Aug-23 05:33N 39°24' W 000°16'57 9.5
2016-Aug-22 23:31N 39°18' E 000°57'1010.1
2016-Aug-22 22:31N 39°18' E 001°10'9 9.6
2016-Aug-22 21:33N 39°16' E 001°22'1010.0
2016-Aug-22 20:32N 39°14' E 001°35'1010.0
2016-Aug-22 19:31N 39°12' E 001°47'1010.0
2016-Aug-22 18:33N 39°10' E 001°60'1010.0
2016-Aug-22 17:33N 39°09' E 002°12'10 9.7
2016-Aug-22 16:33N 39°06' E 002°25'9 9.3
2016-Aug-22 15:33N 39°04' E 002°36'9 9.2
2016-Aug-22 14:33N 39°02' E 002°48'9 9.2
2016-Aug-22 13:33N 39°01' E 002°59'9 9.4
2016-Aug-22 12:33N 38°59' E 003°11'10 9.8
2016-Aug-22 11:32N 38°56' E 003°24'259 9.6
2016-Aug-21 08:30N 38°04' E 008°48'1010.4
2016-Aug-21 07:33N 38°02' E 009°00'1110.6
2016-Aug-21 06:33N 37°59' E 009°13'2510.4
2016-Aug-21 04:11N 37°54' E 009°44'1710.0
2016-Aug-21 02:29N 37°51' E 010°05'10 9.8
2016-Aug-21 01:27N 37°47' E 010°17'2010.4
2016-Aug-20 23:33N 37°39' E 010°40'1010.4
2016-Aug-20 22:33N 37°34' E 010°51'1010.4
2016-Aug-20 21:33N 37°30' E 011°03'2410.0
2016-Aug-20 19:08N 37°20' E 011°31'710.1
2016-Aug-20 18:29N 37°17' E 011°38'910.0
2016-Aug-20 17:32N 37°13' E 011°49'1310.1
2016-Aug-20 16:17N 37°08' E 012°03'7 9.6
2016-Aug-20 15:33N 37°03' E 012°10'10 9.7
2016-Aug-20 14:33N 37°00' E 012°22'1010.2
2016-Aug-20 13:32N 36°57' E 012°34'1010.0
2016-Aug-20 12:33N 36°54' E 012°45'10 9.8
2016-Aug-20 11:33N 36°51' E 012°57'10 9.6
2016-Aug-20 10:33N 36°48' E 013°08'10 9.7
2016-Aug-20 09:33N 36°45' E 013°20'10 9.6
2016-Aug-20 08:33N 36°42' E 013°31'1313.2
2016-Aug-20 07:34N 36°38' E 013°47'1717.3
2016-Aug-20 06:33N 36°33' E 014°07'1110.6
2016-Aug-20 05:33N 36°29' E 014°20'1010.1
2016-Aug-20 04:33N 36°26' E 014°32'1010.3
2016-Aug-20 03:33N 36°24' E 014°44'1010.1
2016-Aug-20 02:33N 36°22' E 014°57'10 9.8
2016-Aug-20 01:33N 36°20' E 015°09'10 9.7
2016-Aug-20 00:33N 36°19' E 015°21'10 9.8
2016-Aug-19 23:32N 36°17' E 015°33'12 9.9
2016-Aug-19 22:20N 36°15' E 015°47'367 9.9
2016-Aug-18 09:07N 35°11' E 023°13'610.3
2016-Aug-18 08:30N 35°10' E 023°20'16411.0
2016-Aug-17 17:33N 34°52' E 026°40'  
Track history (hours):
 
Tides and Currents Weather Stations Pressure Air Temp Water Temp Dewpoint Dewpoint Depression Visibility Wind Speed Wind Dir Waves Ship Positions

CMA CGM Homere

Last reported at 2016-Aug-27 09:19 UTC. Time now 2016-Aug-27 09:57 UTC.
Position N 42°33' W 009°48'.

Length 170 m; draft 8.1 m.

Type: Ship (hazmat cat A). MMSI: 235052314.

Date/timePositionNaut miles runAvg speedWind from/ knotsBaromVisibWave heightAir tempDewpointWater temp
2016-Aug-27 09:19N 42°33' W 009°48'2915.0
2016-Aug-27 07:25N 42°05' W 009°49'1414.8
2016-Aug-27 06:29N 41°51' W 009°49'7414.8
2016-Aug-27 01:29N 40°37' W 009°51'1914.6
2016-Aug-27 00:12N 40°18' W 009°51'914.8
2016-Aug-26 23:33N 40°09' W 009°51'5914.8
2016-Aug-26 19:33N 39°10' W 009°53'1515.2
2016-Aug-26 18:33N 38°54' W 009°52'1514.9
2016-Aug-26 17:33N 38°39' W 009°51'1514.8
2016-Aug-26 16:33N 38°25' W 009°46'1414.3
2016-Aug-26 15:33N 38°11' W 009°42'1414.0
2016-Aug-26 14:33N 37°57' W 009°39'1413.9
2016-Aug-26 13:33N 37°44' W 009°35'1414.4
2016-Aug-26 12:33N 37°30' W 009°31'18216.0
2016-Aug-26 01:10N 35°58' W 006°14'1217.9
2016-Aug-26 00:29N 35°58' W 005°59'1617.0
2016-Aug-25 23:33N 35°57' W 005°40'5 0.7
2016-Aug-25 16:04N 35°53' W 005°36'5 8.0
2016-Aug-25 15:24N 35°56' W 005°31'8 9.4
2016-Aug-25 14:34N 36°00' W 005°22'23016.0
2016-Aug-25 00:13N 37°33' W 001°00'8 0.8
2016-Aug-24 14:10N 37°31' W 000°50'1216.6
2016-Aug-24 13:26N 37°34' W 000°35'1817.1
2016-Aug-24 12:23N 37°48' W 000°22'1416.9
2016-Aug-24 11:32N 37°59' W 000°11'8812.6
2016-Aug-24 04:33N 39°27' W 000°19'0 0.0
2016-Aug-24 03:31N 39°27' W 000°19'0 0.0
2016-Aug-24 02:31N 39°27' W 000°19'0 0.0
2016-Aug-24 01:31N 39°27' W 000°19'0 0.0
2016-Aug-24 00:31N 39°27' W 000°19'0 0.0
2016-Aug-23 23:31N 39°27' W 000°19'0 0.0
2016-Aug-23 22:31N 39°27' W 000°19'0 0.0
2016-Aug-23 21:31N 39°27' W 000°19'0 0.0
2016-Aug-23 20:31N 39°27' W 000°19'0 0.0
2016-Aug-23 19:31N 39°27' W 000°19'0 0.0
2016-Aug-23 18:31N 39°27' W 000°19'0 0.0
2016-Aug-23 17:31N 39°27' W 000°19'0 0.0
2016-Aug-23 16:31N 39°27' W 000°19'0 0.0
2016-Aug-23 15:31N 39°27' W 000°19'0 0.0
2016-Aug-23 14:28N 39°27' W 000°19'0 0.0
2016-Aug-23 13:31N 39°27' W 000°19'0 0.0
2016-Aug-23 12:31N 39°27' W 000°19'0 0.0
2016-Aug-23 11:31N 39°27' W 000°19'0 0.0
2016-Aug-23 10:28N 39°27' W 000°19'3 3.0
2016-Aug-23 09:24N 39°24' W 000°17'0 0.1
2016-Aug-23 05:33N 39°24' W 000°16'57 9.5
2016-Aug-22 23:31N 39°18' E 000°57'1010.1
2016-Aug-22 22:31N 39°18' E 001°10'9 9.6
2016-Aug-22 21:33N 39°16' E 001°22'1010.0
2016-Aug-22 20:32N 39°14' E 001°35'1010.0
2016-Aug-22 19:31N 39°12' E 001°47'1010.0
2016-Aug-22 18:33N 39°10' E 001°60'1010.0
2016-Aug-22 17:33N 39°09' E 002°12'10 9.7
2016-Aug-22 16:33N 39°06' E 002°25'9 9.3
2016-Aug-22 15:33N 39°04' E 002°36'9 9.2
2016-Aug-22 14:33N 39°02' E 002°48'9 9.2
2016-Aug-22 13:33N 39°01' E 002°59'9 9.4
2016-Aug-22 12:33N 38°59' E 003°11'10 9.8
2016-Aug-22 11:32N 38°56' E 003°24'259 9.6
2016-Aug-21 08:30N 38°04' E 008°48'1010.4
2016-Aug-21 07:33N 38°02' E 009°00'1110.6
2016-Aug-21 06:33N 37°59' E 009°13'2510.4
2016-Aug-21 04:11N 37°54' E 009°44'1710.0
2016-Aug-21 02:29N 37°51' E 010°05'10 9.8
2016-Aug-21 01:27N 37°47' E 010°17'2010.4
2016-Aug-20 23:33N 37°39' E 010°40'1010.4
2016-Aug-20 22:33N 37°34' E 010°51'1010.4
2016-Aug-20 21:33N 37°30' E 011°03'2410.0
2016-Aug-20 19:08N 37°20' E 011°31'710.1
2016-Aug-20 18:29N 37°17' E 011°38'910.0
2016-Aug-20 17:32N 37°13' E 011°49'1310.1
2016-Aug-20 16:17N 37°08' E 012°03'7 9.6
2016-Aug-20 15:33N 37°03' E 012°10'10 9.7
2016-Aug-20 14:33N 37°00' E 012°22'1010.2
2016-Aug-20 13:32N 36°57' E 012°34'1010.0
2016-Aug-20 12:33N 36°54' E 012°45'10 9.8
2016-Aug-20 11:33N 36°51' E 012°57'10 9.6
2016-Aug-20 10:33N 36°48' E 013°08'10 9.7
2016-Aug-20 09:33N 36°45' E 013°20'10 9.6
2016-Aug-20 08:33N 36°42' E 013°31'1313.2
2016-Aug-20 07:34N 36°38' E 013°47'1717.3
2016-Aug-20 06:33N 36°33' E 014°07'1110.6
2016-Aug-20 05:33N 36°29' E 014°20'1010.1
2016-Aug-20 04:33N 36°26' E 014°32'1010.3
2016-Aug-20 03:33N 36°24' E 014°44'1010.1
2016-Aug-20 02:33N 36°22' E 014°57'10 9.8
2016-Aug-20 01:33N 36°20' E 015°09'10 9.7
2016-Aug-20 00:33N 36°19' E 015°21'10 9.8
2016-Aug-19 23:32N 36°17' E 015°33'12 9.9
2016-Aug-19 22:20N 36°15' E 015°47'367 9.9
2016-Aug-18 09:07N 35°11' E 023°13'610.3
2016-Aug-18 08:30N 35°10' E 023°20'16411.0
2016-Aug-17 17:33N 34°52' E 026°40'  

Dump ship's entire track history